createdAt,value
2019-04-07T00:02:30.351Z,6.00
2019-04-07T00:06:36.135Z,5.80
2019-04-07T00:10:41.672Z,5.70
2019-04-07T00:14:46.948Z,5.60
2019-04-07T00:18:52.391Z,5.60
2019-04-07T00:22:57.552Z,5.40
2019-04-07T00:27:03.632Z,5.40
2019-04-07T00:31:09.476Z,5.30
2019-04-07T00:35:23.848Z,5.20
2019-04-07T00:39:22.424Z,5.20
2019-04-07T00:43:28.543Z,5.00
2019-04-07T00:47:34.936Z,4.80
2019-04-07T00:51:41.005Z,4.80
2019-04-07T00:55:47.830Z,4.80
2019-04-07T00:59:54.019Z,4.80
2019-04-07T01:03:59.902Z,4.80
2019-04-07T01:08:05.500Z,4.70
2019-04-07T01:12:10.710Z,4.60
2019-04-07T01:16:16.135Z,4.60
2019-04-07T01:20:21.631Z,4.50
2019-04-07T01:24:26.746Z,4.50
2019-04-07T01:28:32.021Z,4.50
2019-04-07T01:32:37.808Z,4.20
2019-04-07T01:36:43.212Z,4.30
2019-04-07T01:40:58.281Z,4.20
2019-04-07T01:45:21.618Z,4.30
2019-04-07T01:49:57.887Z,4.20
2019-04-07T01:54:40.089Z,4.10
2019-04-07T01:59:19.803Z,4.00
2019-04-07T02:03:44.569Z,3.90
2019-04-07T02:08:08.036Z,3.80
2019-04-07T02:12:37.505Z,3.70
2019-04-07T02:17:14.686Z,3.60
2019-04-07T02:21:28.426Z,3.70
2019-04-07T02:26:05.002Z,3.60
2019-04-07T02:30:29.124Z,3.50
2019-04-07T02:34:49.007Z,3.40
2019-04-07T02:39:07.849Z,3.40
2019-04-07T02:43:38.545Z,3.30
2019-04-07T02:48:05.787Z,3.30
2019-04-07T02:52:34.466Z,3.20
2019-04-07T02:56:49.598Z,3.10
2019-04-07T03:01:26.340Z,3.10
2019-04-07T03:06:06.917Z,3.00
2019-04-07T03:10:24.978Z,2.90
2019-04-07T03:14:45.550Z,2.80
2019-04-07T03:19:00.225Z,2.80
2019-04-07T03:23:11.173Z,2.70
2019-04-07T03:27:32.407Z,2.70
2019-04-07T03:31:59.733Z,2.60
2019-04-07T03:36:12.754Z,2.60
2019-04-07T03:40:30.213Z,2.60
2019-04-07T03:44:54.397Z,2.50
2019-04-07T03:49:13.784Z,2.50
2019-04-07T03:53:44.018Z,2.50
2019-04-07T03:58:12.290Z,2.40
2019-04-07T04:02:35.389Z,2.30
2019-04-07T04:07:22.892Z,2.40
2019-04-07T04:11:40.607Z,2.30
2019-04-07T04:16:03.275Z,2.20
2019-04-07T04:20:10.398Z,2.20
2019-04-07T04:24:16.770Z,2.20
2019-04-07T04:28:22.166Z,2.20
2019-04-07T04:32:28.736Z,2.20
2019-04-07T04:36:34.128Z,2.10
2019-04-07T04:40:39.860Z,2.20
2019-04-07T04:44:46.039Z,2.10
2019-04-07T04:48:51.684Z,2.10
2019-04-07T04:52:57.846Z,2.30
2019-04-07T04:57:06.419Z,2.40
2019-04-07T05:01:10.606Z,2.40
2019-04-07T05:05:16.974Z,2.40
2019-04-07T05:09:23.207Z,2.50
2019-04-07T05:13:28.670Z,2.70
2019-04-07T05:17:35.558Z,2.80
2019-04-07T05:21:40.805Z,2.90
2019-04-07T05:25:46.174Z,3.00
2019-04-07T05:29:52.040Z,3.10
2019-04-07T05:33:57.502Z,3.30
2019-04-07T05:38:05.590Z,3.40
2019-04-07T05:42:09.948Z,3.60
2019-04-07T05:46:15.981Z,3.80
2019-04-07T05:50:22.249Z,3.90
2019-04-07T05:54:28.505Z,4.20
2019-04-07T05:58:37.574Z,4.40
2019-04-07T06:02:41.687Z,4.40
2019-04-07T06:06:52.663Z,4.60
2019-04-07T06:11:00.361Z,4.80
2019-04-07T06:15:03.137Z,5.00
2019-04-07T06:19:09.015Z,5.30
2019-04-07T06:23:14.246Z,5.40
2019-04-07T06:27:19.452Z,5.50
2019-04-07T06:31:26.307Z,5.70
2019-04-07T06:35:31.639Z,5.90
2019-04-07T06:39:37.337Z,6.10
2019-04-07T06:43:42.835Z,6.30
2019-04-07T06:47:51.854Z,6.60
2019-04-07T06:52:22.659Z,6.90
2019-04-07T06:56:45.752Z,7.20
2019-04-07T07:01:16.590Z,7.50
2019-04-07T07:05:43.020Z,7.70
2019-04-07T07:10:06.173Z,7.90
2019-04-07T07:14:36.493Z,8.20
2019-04-07T07:19:06.266Z,8.60
2019-04-07T07:23:15.882Z,9.20
2019-04-07T07:27:22.858Z,9.40
2019-04-07T07:31:28.309Z,9.80
2019-04-07T07:35:33.549Z,10.20
2019-04-07T07:39:41.836Z,10.50
2019-04-07T07:43:46.051Z,10.80
2019-04-07T07:47:53.217Z,11.00
2019-04-07T07:51:58.201Z,11.20
2019-04-07T07:56:08.315Z,11.50
2019-04-07T08:00:11.348Z,11.70
2019-04-07T08:04:17.330Z,11.80
2019-04-07T08:08:23.411Z,11.90
2019-04-07T08:12:32.430Z,12.00
2019-04-07T08:16:35.706Z,12.10
2019-04-07T08:20:44.070Z,12.20
2019-04-07T08:24:51.144Z,12.30
2019-04-07T08:28:54.789Z,13.60
2019-04-07T08:33:01.235Z,14.40
2019-04-07T08:37:06.919Z,14.70
2019-04-07T08:41:13.380Z,15.70
2019-04-07T08:45:19.658Z,17.90
2019-04-07T08:49:25.607Z,18.30
2019-04-07T08:53:30.796Z,20.10
2019-04-07T08:57:36.885Z,20.30
2019-04-07T09:01:42.357Z,20.70
2019-04-07T09:05:47.850Z,22.50
2019-04-07T09:09:53.201Z,22.20
2019-04-07T09:13:58.851Z,23.30
2019-04-07T09:18:12.731Z,20.10
2019-04-07T09:22:51.482Z,18.00
2019-04-07T09:27:17.127Z,17.80
2019-04-07T09:31:44.865Z,18.40
2019-04-07T09:36:09.070Z,20.20
2019-04-07T09:40:39.374Z,21.60
2019-04-07T09:45:22.772Z,21.80
2019-04-07T09:49:52.555Z,20.20
2019-04-07T09:54:11.187Z,19.50
2019-04-07T09:58:35.759Z,20.00
2019-04-07T10:03:08.574Z,20.50
2019-04-07T10:07:23.994Z,20.90
2019-04-07T10:11:38.910Z,20.20
2019-04-07T10:15:54.957Z,20.60
2019-04-07T10:20:11.306Z,21.50
2019-04-07T10:24:41.618Z,22.10
2019-04-07T10:29:06.053Z,22.70
2019-04-07T10:33:39.458Z,21.10
2019-04-07T10:37:59.510Z,21.90
2019-04-07T10:42:18.021Z,21.20
2019-04-07T10:46:45.008Z,19.50
2019-04-07T10:51:10.419Z,19.30
2019-04-07T10:55:23.013Z,18.90
2019-04-07T10:59:39.082Z,19.60
2019-04-07T11:04:15.592Z,19.40
2019-04-07T11:08:40.074Z,18.70
2019-04-07T11:13:03.122Z,20.10
2019-04-07T11:17:39.486Z,23.20
2019-04-07T11:22:00.831Z,23.80
2019-04-07T11:26:31.194Z,22.50
2019-04-07T11:30:47.338Z,25.80
2019-04-07T11:35:11.517Z,26.30
2019-04-07T11:39:42.444Z,25.80
2019-04-07T11:44:06.385Z,26.40
2019-04-07T11:48:29.914Z,27.30
2019-04-07T11:53:00.572Z,26.30
2019-04-07T11:57:25.822Z,27.30
2019-04-07T12:02:09.018Z,28.10
2019-04-07T12:06:40.798Z,28.30
2019-04-07T12:11:17.929Z,27.00
2019-04-07T12:15:42.972Z,26.40
2019-04-07T12:20:10.874Z,27.00
2019-04-07T12:24:35.544Z,27.10
2019-04-07T12:28:57.964Z,27.50
2019-04-07T12:33:23.193Z,29.40
2019-04-07T12:37:54.224Z,30.30
2019-04-07T12:42:08.475Z,29.70
2019-04-07T12:46:36.493Z,30.70
2019-04-07T12:51:07.374Z,30.40
2019-04-07T12:55:56.898Z,29.90
2019-04-07T13:00:28.930Z,30.40
2019-04-07T13:04:46.335Z,29.90
2019-04-07T13:09:03.974Z,26.40
2019-04-07T13:13:31.639Z,24.60
2019-04-07T13:17:50.632Z,23.60
2019-04-07T13:22:33.393Z,23.40
2019-04-07T13:26:50.062Z,23.50
2019-04-07T13:31:18.049Z,22.70
2019-04-07T13:35:42.198Z,21.50
2019-04-07T13:40:02.408Z,20.50
2019-04-07T13:44:24.214Z,20.50
2019-04-07T13:48:51.608Z,20.40
2019-04-07T13:53:13.605Z,20.20
2019-04-07T13:57:39.284Z,19.80
2019-04-07T14:01:54.049Z,19.90
2019-04-07T14:06:29.499Z,20.10
2019-04-07T14:10:45.923Z,19.20
2019-04-07T14:15:22.569Z,19.00
2019-04-07T14:19:44.832Z,18.90
2019-04-07T14:24:08.162Z,19.30
2019-04-07T14:28:26.651Z,18.90
2019-04-07T14:32:52.037Z,18.90
2019-04-07T14:37:26.465Z,19.00
2019-04-07T14:42:04.940Z,18.60
2019-04-07T14:46:23.840Z,18.40
2019-04-07T14:50:51.064Z,18.00
2019-04-07T14:55:14.005Z,17.60
2019-04-07T14:59:29.649Z,17.40
2019-04-07T15:03:35.285Z,17.20
2019-04-07T15:08:06.307Z,17.10
2019-04-07T15:12:23.900Z,17.40
2019-04-07T15:16:27.452Z,17.80
2019-04-07T15:20:32.972Z,17.90
2019-04-07T15:24:39.357Z,17.60
2019-04-07T15:28:45.638Z,17.20
2019-04-07T15:32:51.577Z,16.70
2019-04-07T15:36:57.766Z,16.50
2019-04-07T15:41:07.739Z,16.20
2019-04-07T15:45:13.371Z,16.00
2019-04-07T15:49:20.408Z,15.80
2019-04-07T15:53:27.934Z,15.50
2019-04-07T15:57:33.283Z,15.30
2019-04-07T16:01:39.344Z,15.20
2019-04-07T16:05:46.476Z,15.00
2019-04-07T16:09:56.310Z,15.00
2019-04-07T16:13:59.591Z,14.90
2019-04-07T16:18:07.295Z,14.90
2019-04-07T16:22:14.160Z,14.80
2019-04-07T16:26:20.659Z,14.70
2019-04-07T16:30:26.322Z,14.60
2019-04-07T16:34:31.950Z,14.30
2019-04-07T16:38:37.202Z,13.80
2019-04-07T16:42:53.852Z,13.30
2019-04-07T16:46:54.613Z,12.80
2019-04-07T16:50:57.842Z,12.40
2019-04-07T16:55:04.274Z,12.10
2019-04-07T16:59:10.615Z,11.90
2019-04-07T17:03:17.125Z,11.80
2019-04-07T17:07:23.320Z,11.80
2019-04-07T17:11:30.105Z,11.70
2019-04-07T17:15:39.561Z,11.70
2019-04-07T17:19:43.605Z,11.70
2019-04-07T17:23:53.211Z,11.60
2019-04-07T17:28:00.450Z,11.60
2019-04-07T17:32:04.895Z,11.60
2019-04-07T17:36:15.008Z,11.50
2019-04-07T17:40:19.712Z,11.40
2019-04-07T17:44:35.055Z,11.20
2019-04-07T17:48:58.894Z,11.10
2019-04-07T17:53:25.283Z,11.00
2019-04-07T17:57:42.848Z,10.80
2019-04-07T18:02:28.893Z,10.80
2019-04-07T18:07:06.064Z,10.70
2019-04-07T18:11:30.107Z,10.50
2019-04-07T18:15:57.937Z,10.40
2019-04-07T18:20:28.281Z,10.40
2019-04-07T18:25:02.780Z,10.30
2019-04-07T18:29:30.909Z,10.30
2019-04-07T18:34:06.739Z,10.30
2019-04-07T18:38:35.298Z,10.30
2019-04-07T18:43:06.277Z,10.20
2019-04-07T18:47:54.867Z,10.10
2019-04-07T18:52:29.553Z,10.00
2019-04-07T18:56:54.833Z,9.90
2019-04-07T19:01:34.245Z,9.60
2019-04-07T19:05:58.531Z,9.50
2019-04-07T19:10:25.571Z,9.30
2019-04-07T19:14:44.449Z,9.10
2019-04-07T19:19:02.799Z,8.90
2019-04-07T19:23:28.556Z,8.80
2019-04-07T19:28:00.991Z,8.70
2019-04-07T19:32:25.140Z,8.70
2019-04-07T19:36:49.950Z,8.60
2019-04-07T19:41:13.349Z,8.50
2019-04-07T19:45:37.044Z,8.50
2019-04-07T19:50:11.584Z,8.60
2019-04-07T19:54:55.087Z,8.60
2019-04-07T19:59:26.658Z,8.80
2019-04-07T20:04:10.229Z,8.90
2019-04-07T20:08:32.297Z,9.00
2019-04-07T20:12:56.055Z,9.10
2019-04-07T20:17:23.584Z,9.20
2019-04-07T20:21:54.712Z,9.30
2019-04-07T20:26:06.532Z,9.30
2019-04-07T20:30:33.467Z,9.50
2019-04-07T20:34:57.005Z,9.60
2019-04-07T20:39:12.706Z,9.50
2019-04-07T20:43:40.553Z,9.50
2019-04-07T20:48:03.795Z,9.60
2019-04-07T20:52:24.027Z,9.50
2019-04-07T20:56:45.615Z,9.60
2019-04-07T21:01:10.982Z,9.50
2019-04-07T21:05:36.485Z,9.40
2019-04-07T21:09:59.934Z,9.20
2019-04-07T21:14:43.172Z,9.00
2019-04-07T21:19:07.699Z,8.70
2019-04-07T21:23:19.452Z,8.50
2019-04-07T21:27:42.871Z,8.30
2019-04-07T21:32:03.517Z,8.10
2019-04-07T21:36:32.205Z,7.90
2019-04-07T21:40:55.553Z,7.70
2019-04-07T21:49:43.892Z,7.50
2019-04-07T21:53:59.985Z,7.40
2019-04-07T21:58:31.548Z,7.30
2019-04-07T22:02:50.862Z,7.30
2019-04-07T22:07:18.232Z,7.30
2019-04-07T22:11:26.678Z,7.30
2019-04-07T22:15:42.190Z,7.30
2019-04-07T22:19:38.125Z,7.30
2019-04-07T22:23:44.285Z,7.40
2019-04-07T22:27:50.441Z,7.40
2019-04-07T22:31:58.358Z,7.40
2019-04-07T22:36:03.889Z,7.60
2019-04-07T22:40:15.919Z,7.60
2019-04-07T22:44:22.219Z,7.60
2019-04-07T22:48:29.412Z,7.60
2019-04-07T22:52:35.998Z,7.70
2019-04-07T22:56:41.419Z,7.70
2019-04-07T23:00:46.796Z,7.70
2019-04-07T23:04:52.471Z,7.70
2019-04-07T23:08:57.747Z,7.70
2019-04-07T23:13:03.622Z,7.60
2019-04-07T23:17:09.898Z,7.50
2019-04-07T23:21:15.516Z,7.30
2019-04-07T23:25:22.649Z,7.10
2019-04-07T23:29:28.312Z,6.90
2019-04-07T23:33:34.659Z,6.60
2019-04-07T23:37:41.094Z,6.60
2019-04-07T23:41:46.464Z,6.50
2019-04-07T23:45:51.793Z,6.40
2019-04-07T23:49:57.032Z,6.30
2019-04-07T23:54:15.133Z,6.30
2019-04-07T23:58:20.930Z,6.20
